CheckWX is a tool to help pilots better visualize weather data.  It is not intended as a substitute for an official pre-flight weather briefing.

21:35:49 UTC

KLEE TAF
Leesburg International Airport
Leesburg, Florida, USA
KLEE 201749Z 2018/2118 02012KT P6SM BKN060 FM210000 04005KT P6SM BKN040 FM211500 33007KT P6SM SCT035

Mar-20@
18:00 UTC

Mar-20 @ 18:00 UTC

Mar-21@
00:00 UTC

Mar-21 @ 00:00 UTC

KLEE 201749Z 2018/2118 02012KT P6SM BKN060
Wind
  • 020° at 12 KTS
Cloud Levels
  • Broken at 6,000' AGL

Mar-21@
00:00 UTC

Mar-21 @ 00:00 UTC

Mar-21@
15:00 UTC

Mar-21 @ 15:00 UTC

FM210000 04005KT P6SM BKN040

From

From Standard forecast or significant change

Wind
  • 040° at 5 KTS
Cloud Levels
  • Broken at 4,000' AGL

Mar-21@
15:00 UTC

Mar-21 @ 15:00 UTC

Mar-21@
18:00 UTC

Mar-21 @ 18:00 UTC

FM211500 33007KT P6SM SCT035

From

From Standard forecast or significant change

Wind
  • 330° at 7 KTS
Cloud Levels
  • Scattered at 3,500' AGL